Sunday, October 21, 2018, 7:48 PM EDT
Back to Local

KTAN, Taunton Municipal Airport

Location: East Taunton, MA, United States Lat: 41.883
Local Time: 7:48 PM EDT (23:48 GMT) Lon: -71.017
Time Zone: US/Eastern Elev: 42 ft

Show me the last for .
Show Decoded

2018-10-21 18:52 METAR KTAN 212252Z AUTO 31003KT 10SM CLR 04/M04 A2997 RMK AO2 SLP149 T00391044 =
2018-10-21 17:52 METAR KTAN 212152Z AUTO 31009G15KT 10SM CLR 06/M05 A2992 RMK AO2 SLP133
                 T00561050 =
2018-10-21 16:52 METAR KTAN 212052Z AUTO 32010G20KT 10SM FEW050 07/M04 A2988 RMK AO2 SLP118
                 T00721044 53032 =
2018-10-21 15:52 METAR KTAN 211952Z AUTO 30014G22KT 270V340 10SM BKN050 07/M04 A2984 RMK AO2 PK
                 WND 29026/1904 SLP104 T00721039 =
2018-10-21 14:52 METAR KTAN 211852Z AUTO 30012G24KT 10SM BKN049 09/M03 A2981 RMK AO2 SLP093
                 T00891028 =
2018-10-21 13:52 METAR KTAN 211752Z AUTO 32010G22KT 290V350 10SM CLR 09/M03 A2978 RMK AO2 PK WND
                 36026/1726 SLP086 60008 T00891028 10106 20061 53009 =
2018-10-21 12:52 METAR KTAN 211652Z AUTO 31010G20KT 10SM CLR 10/M01 A2976 RMK AO2 SLP079
                 T01001006 =
2018-10-21 11:52 METAR KTAN 211552Z AUTO 32009G16KT 10SM SCT110 08/01 A2977 RMK AO2 SLP082
                 T00830006 =
2018-10-21 10:52 METAR KTAN 211452Z AUTO 33008KT 10SM BKN075 OVC090 07/04 A2976 RMK AO2 RAE21
                 SLP076 P0000 60008 T00720039 51025 =
2018-10-21 09:52 METAR KTAN 211352Z AUTO 33009G16KT 8SM -RA FEW028 OVC037 06/04 A2975 RMK AO2
                 SLP074 P0003 T00610039 =
2018-10-21 08:52 METAR KTAN 211252Z AUTO 36007G15KT 5SM RA BR OVC032 06/04 A2973 RMK AO2 SLP067
                 P0005 T00610039 =
2018-10-21 07:52 METAR KTAN 211152Z AUTO 34006KT 6SM -RA BR OVC033 07/05 A2968 RMK AO2 SLP051
                 P0006 60015 70015 T00720050 10089 20067 53034 =
2018-10-21 06:52 METAR KTAN 211052Z AUTO 31005KT 6SM RA BR OVC040 08/06 A2965 RMK AO2 PRESRR
                 SLP039 P0005 T00780056 =
2018-10-21 05:52 METAR KTAN 210952Z AUTO VRB04KT 9SM -RA BKN044 OVC050 09/07 A2960 RMK AO2 SLP023
                 P0004 T00890067 =
2018-10-21 04:52 METAR KTAN 210852Z AUTO 25007KT 10SM -RA BKN055 OVC070 09/07 A2958 RMK AO2 RAB09
                 PRESRR SLP017 P0000 60000 T00890067 53002 =
2018-10-21 03:52 METAR KTAN 210752Z AUTO 00000KT 9SM BKN060 BKN085 OVC110 08/07 A2955 RMK AO2
                 SLP007 T00780067 =
2018-10-21 02:52 METAR KTAN 210652Z AUTO 00000KT 8SM BKN065 BKN075 BKN090 07/06 A2955 RMK AO2
                 SLP007 T00720061 =
2018-10-21 01:52 METAR KTAN 210552Z AUTO 00000KT 8SM SCT060 SCT075 OVC110 07/05 A2957 RMK AO2
                 SLP015 T00670050 10100 20044 58009 =
2018-10-21 00:52 METAR KTAN 210452Z AUTO 00000KT 10SM OVC095 06/06 A2958 RMK AO2 SLP017 T00610056
                 401890044 =
2018-10-21 00:08 METAR KTAN 210408Z AUTO 13003KT 3SM BR BKN095 06/04 A2959 RMK AO2 T00560044 =
2018-10-20 23:59 METAR KTAN 210359Z AUTO 00000KT 1 3/4SM BR FEW090 04/04 A2959 RMK AO2 VIS 1/2V5
                 T00440039 =
2018-10-20 23:52 METAR KTAN 210352Z AUTO 00000KT 4SM BR FEW090 05/04 A2960 RMK AO2 SLP022
                 T00500039 =
2018-10-20 22:52 METAR KTAN 210252Z AUTO 00000KT 8SM CLR 06/04 A2960 RMK AO2 SLP023 T00560044
                 53004 =
2018-10-20 21:52 METAR KTAN 210152Z AUTO 00000KT 10SM CLR 08/07 A2959 RMK AO2 SLP021 T00780067 =
2018-10-20 20:52 METAR KTAN 210052Z AUTO 00000KT 10SM FEW065 OVC080 09/07 A2959 RMK AO2 SLP019
                 T00890072 =
2018-10-20 19:52 METAR KTAN 202352Z AUTO 00000KT 10SM CLR 09/07 A2959 RMK AO2 SLP020 T00940067
                 10189 20094 53012 =

Support USWX by starting your Amazon purchase here.